createdAt,value
2017-08-04T00:00:31.048Z,0
2017-08-04T00:01:32.445Z,0
2017-08-04T00:03:14.822Z,0
2017-08-04T00:04:16.199Z,0
2017-08-04T00:05:17.590Z,0
2017-08-04T00:06:18.969Z,0
2017-08-04T00:07:20.351Z,0
2017-08-04T00:08:21.732Z,0
2017-08-04T00:09:23.118Z,0
2017-08-04T00:10:24.509Z,0
2017-08-04T00:11:25.883Z,0
2017-08-04T00:12:27.260Z,0
2017-08-04T00:13:28.639Z,0
2017-08-04T00:15:11.006Z,0
2017-08-04T00:16:12.392Z,0
2017-08-04T00:17:13.771Z,0
2017-08-04T00:18:15.144Z,0
2017-08-04T00:19:16.528Z,0
2017-08-04T00:20:17.909Z,0
2017-08-04T00:21:19.291Z,0
2017-08-04T00:22:20.672Z,0
2017-08-04T00:23:22.051Z,0
2017-08-04T00:24:23.440Z,0
2017-08-04T00:26:05.825Z,0
2017-08-04T00:27:07.214Z,0
2017-08-04T00:28:08.593Z,0
2017-08-04T00:29:09.969Z,0
2017-08-04T00:30:11.356Z,0
2017-08-04T00:31:12.737Z,0
2017-08-04T00:32:14.127Z,0
2017-08-04T00:33:15.506Z,0
2017-08-04T00:34:16.887Z,0
2017-08-04T00:35:18.341Z,0
2017-08-04T00:36:19.786Z,0
2017-08-04T00:37:21.242Z,0
2017-08-04T00:38:22.715Z,0
2017-08-04T00:39:24.101Z,0
2017-08-04T00:40:25.554Z,0
2017-08-04T00:41:26.938Z,0
2017-08-04T00:42:28.326Z,0
2017-08-04T00:43:29.706Z,0
2017-08-04T00:45:12.087Z,0
2017-08-04T00:46:13.479Z,0
2017-08-04T00:47:14.860Z,0
2017-08-04T00:48:16.237Z,0
2017-08-04T00:49:17.618Z,0
2017-08-04T00:50:19.002Z,0
2017-08-04T00:51:20.381Z,0
2017-08-04T00:53:02.755Z,0
2017-08-04T00:54:04.138Z,0
2017-08-04T00:55:05.519Z,0
2017-08-04T00:56:06.901Z,0
2017-08-04T00:57:08.291Z,0
2017-08-04T00:58:09.675Z,0
2017-08-04T00:59:11.053Z,0
2017-08-04T01:00:12.438Z,0
2017-08-04T01:01:13.829Z,0
2017-08-04T01:02:15.208Z,0
2017-08-04T01:03:16.583Z,0
2017-08-04T01:04:17.963Z,0
2017-08-04T01:05:19.342Z,0
2017-08-04T01:06:20.721Z,0
2017-08-04T01:07:22.105Z,0
2017-08-04T01:08:23.484Z,0
2017-08-04T01:09:24.865Z,0
2017-08-04T01:10:26.242Z,0
2017-08-04T01:11:27.625Z,0
2017-08-04T01:12:29.006Z,0
2017-08-04T01:13:30.391Z,0
2017-08-04T01:14:31.790Z,0
2017-08-04T01:15:33.168Z,0
2017-08-04T01:16:34.546Z,0
2017-08-04T01:17:35.927Z,0
2017-08-04T01:18:37.304Z,0
2017-08-04T01:19:38.691Z,0
2017-08-04T01:20:40.073Z,0
2017-08-04T01:21:41.456Z,0
2017-08-04T01:22:42.839Z,0
2017-08-04T01:23:44.218Z,0
2017-08-04T01:24:45.600Z,0
2017-08-04T01:25:46.984Z,0
2017-08-04T01:26:48.382Z,0
2017-08-04T01:27:49.757Z,0
2017-08-04T01:28:51.142Z,0
2017-08-04T01:30:33.522Z,0
2017-08-04T01:31:34.901Z,0
2017-08-04T01:32:36.276Z,0
2017-08-04T01:33:37.662Z,0
2017-08-04T01:34:39.044Z,0
2017-08-04T01:35:40.426Z,0
2017-08-04T01:36:41.818Z,0
2017-08-04T01:37:43.203Z,0
2017-08-04T01:38:44.604Z,0
2017-08-04T01:39:45.979Z,0
2017-08-04T01:40:47.343Z,0
2017-08-04T01:41:48.725Z,0
2017-08-04T01:42:50.110Z,0
2017-08-04T01:43:51.487Z,0
2017-08-04T01:44:52.919Z,0
2017-08-04T01:45:55.041Z,0
2017-08-04T01:47:37.427Z,0
2017-08-04T01:48:38.800Z,0
2017-08-04T01:49:40.179Z,0
2017-08-04T01:50:41.558Z,0
2017-08-04T01:51:43.220Z,0
2017-08-04T01:52:44.606Z,0
2017-08-04T01:54:26.972Z,0
2017-08-04T01:55:28.354Z,0
2017-08-04T01:56:29.740Z,0
2017-08-04T01:57:31.116Z,0
2017-08-04T01:58:32.491Z,0
2017-08-04T02:00:14.875Z,0
2017-08-04T02:01:56.234Z,0
2017-08-04T02:02:57.613Z,0
2017-08-04T02:04:20.615Z,0
2017-08-04T02:05:21.989Z,0
2017-08-04T02:06:23.386Z,0
2017-08-04T02:07:24.746Z,0
2017-08-04T02:08:26.133Z,0
2017-08-04T02:09:27.511Z,0
2017-08-04T02:10:28.900Z,0
2017-08-04T02:11:30.288Z,0
2017-08-04T02:12:31.674Z,0
2017-08-04T02:13:33.113Z,0
2017-08-04T02:14:34.459Z,0
2017-08-04T02:15:35.877Z,0
2017-08-04T02:16:37.253Z,0
2017-08-04T02:17:38.646Z,0
2017-08-04T02:18:40.034Z,0
2017-08-04T02:19:41.460Z,0
2017-08-04T02:20:42.856Z,0
2017-08-04T02:21:44.230Z,0
2017-08-04T02:22:45.661Z,0
2017-08-04T02:23:47.098Z,0
2017-08-04T02:24:48.527Z,0
2017-08-04T02:25:49.915Z,0
2017-08-04T02:26:51.289Z,0
2017-08-04T02:27:53.273Z,0
2017-08-04T02:28:54.713Z,0
2017-08-04T02:29:56.128Z,0
2017-08-04T02:30:57.522Z,0
2017-08-04T02:31:58.914Z,0
2017-08-04T02:33:00.297Z,0
2017-08-04T02:34:01.778Z,0
2017-08-04T02:35:44.183Z,0
2017-08-04T02:36:45.544Z,0
2017-08-04T02:37:46.929Z,0
2017-08-04T02:38:48.305Z,0
2017-08-04T02:39:49.704Z,0
2017-08-04T02:40:51.075Z,0
2017-08-04T02:41:52.460Z,0
2017-08-04T02:42:53.882Z,0
2017-08-04T02:43:55.248Z,0
2017-08-04T02:44:56.632Z,0
2017-08-04T02:45:58.034Z,0
2017-08-04T02:46:59.398Z,0
2017-08-04T02:48:41.787Z,0
2017-08-04T02:49:43.181Z,0
2017-08-04T02:50:44.551Z,0
2017-08-04T02:51:45.927Z,0
2017-08-04T02:52:47.307Z,0
2017-08-04T02:53:48.708Z,0
2017-08-04T02:54:50.097Z,0
2017-08-04T02:55:51.469Z,0
2017-08-04T02:56:52.856Z,0
2017-08-04T02:57:54.225Z,0
2017-08-04T02:58:55.631Z,0
2017-08-04T02:59:56.995Z,0
2017-08-04T03:00:58.381Z,0
2017-08-04T03:01:59.758Z,0
2017-08-04T03:03:01.136Z,0
2017-08-04T03:04:02.580Z,0
2017-08-04T03:05:04.016Z,0
2017-08-04T03:06:05.418Z,0
2017-08-04T03:07:06.811Z,0
2017-08-04T03:08:08.213Z,0
2017-08-04T03:09:09.588Z,0
2017-08-04T03:10:10.968Z,0
2017-08-04T03:11:12.349Z,0
2017-08-04T03:12:13.810Z,0
2017-08-04T03:13:15.199Z,0
2017-08-04T03:14:16.576Z,0
2017-08-04T03:15:17.982Z,0
2017-08-04T03:16:19.451Z,0
2017-08-04T03:17:20.832Z,0
2017-08-04T03:18:22.214Z,0
2017-08-04T03:20:03.619Z,0
2017-08-04T03:21:04.971Z,0
2017-08-04T03:22:06.347Z,4
2017-08-04T03:23:07.732Z,4
2017-08-04T03:24:09.124Z,0
2017-08-04T03:25:10.534Z,4
2017-08-04T03:26:11.886Z,4
2017-08-04T03:27:13.265Z,4
2017-08-04T03:28:14.648Z,4
2017-08-04T03:29:16.044Z,8
2017-08-04T03:30:17.482Z,4
2017-08-04T03:31:18.916Z,8
2017-08-04T03:32:20.316Z,8
2017-08-04T03:33:21.788Z,8
2017-08-04T03:34:23.219Z,12
2017-08-04T03:35:24.603Z,16
2017-08-04T03:36:25.987Z,16
2017-08-04T03:37:27.370Z,16
2017-08-04T03:38:28.828Z,20
2017-08-04T03:39:30.215Z,20
2017-08-04T03:40:31.610Z,24
2017-08-04T03:41:33.047Z,24
2017-08-04T03:42:34.432Z,20
2017-08-04T03:44:16.801Z,32
2017-08-04T03:45:18.180Z,40
2017-08-04T03:46:19.558Z,48
2017-08-04T03:47:20.940Z,56
2017-08-04T03:48:22.313Z,64
2017-08-04T03:49:23.729Z,68
2017-08-04T03:50:25.156Z,80
2017-08-04T03:51:26.536Z,92
2017-08-04T03:52:27.997Z,100
2017-08-04T03:53:29.370Z,112
2017-08-04T03:54:30.748Z,120
2017-08-04T03:55:32.134Z,128
2017-08-04T03:56:33.592Z,132
2017-08-04T03:57:34.981Z,140
2017-08-04T03:58:36.411Z,152
2017-08-04T03:59:37.825Z,156
2017-08-04T04:00:39.290Z,164
2017-08-04T04:01:40.672Z,180
2017-08-04T04:02:42.087Z,188
2017-08-04T04:03:43.521Z,200
2017-08-04T04:04:44.973Z,208
2017-08-04T04:05:46.413Z,216
2017-08-04T04:06:47.824Z,224
2017-08-04T04:07:49.214Z,232
2017-08-04T04:08:50.670Z,228
2017-08-04T04:09:52.123Z,216
2017-08-04T04:10:53.566Z,228
2017-08-04T04:11:54.957Z,280
2017-08-04T04:12:56.354Z,312
2017-08-04T04:13:57.734Z,312
2017-08-04T04:14:59.136Z,296
2017-08-04T04:16:00.555Z,284
2017-08-04T04:17:01.975Z,276
2017-08-04T04:18:03.427Z,324
2017-08-04T04:19:04.803Z,388
2017-08-04T04:20:06.198Z,400
2017-08-04T04:21:07.619Z,372
2017-08-04T04:22:09.041Z,352
2017-08-04T04:23:10.461Z,376
2017-08-04T04:24:52.840Z,400
2017-08-04T04:25:54.223Z,376
2017-08-04T04:26:55.604Z,364
2017-08-04T04:27:56.995Z,368
2017-08-04T04:28:58.386Z,320
2017-08-04T04:29:59.784Z,344
2017-08-04T04:31:01.167Z,376
2017-08-04T04:32:02.551Z,464
2017-08-04T04:33:03.934Z,516
2017-08-04T04:34:05.315Z,672
2017-08-04T04:35:06.702Z,784
2017-08-04T04:36:08.093Z,692
2017-08-04T04:37:09.474Z,600
2017-08-04T04:38:10.858Z,448
2017-08-04T04:39:12.245Z,424
2017-08-04T04:40:13.666Z,352
2017-08-04T04:41:15.047Z,408
2017-08-04T04:42:16.435Z,620
2017-08-04T04:43:17.817Z,804
2017-08-04T04:44:19.201Z,884
2017-08-04T04:45:20.590Z,908
2017-08-04T04:46:21.983Z,864
2017-08-04T04:47:23.406Z,1120
2017-08-04T04:48:24.779Z,1408
2017-08-04T04:49:26.171Z,1528
2017-08-04T04:50:27.552Z,1720
2017-08-04T04:51:28.943Z,1808
2017-08-04T04:52:30.337Z,1544
2017-08-04T04:53:31.721Z,1336
2017-08-04T04:54:33.105Z,1088
2017-08-04T04:55:34.486Z,1048
2017-08-04T04:56:35.875Z,1004
2017-08-04T04:57:37.263Z,1252
2017-08-04T04:58:38.660Z,1692
2017-08-04T04:59:40.062Z,1840
2017-08-04T05:00:41.439Z,1932
2017-08-04T05:01:42.831Z,1704
2017-08-04T05:02:44.220Z,1500
2017-08-04T05:03:46.194Z,1704
2017-08-04T05:04:48.356Z,1976
2017-08-04T05:05:50.490Z,2080
2017-08-04T05:06:52.130Z,2060
2017-08-04T05:07:53.946Z,2220
2017-08-04T05:08:56.211Z,2488
2017-08-04T05:09:57.625Z,2764
2017-08-04T05:10:59.061Z,2632
2017-08-04T05:12:00.449Z,2036
2017-08-04T05:13:01.832Z,1600
2017-08-04T05:14:03.215Z,1336
2017-08-04T05:15:04.602Z,1132
2017-08-04T05:16:05.984Z,968
2017-08-04T05:17:07.372Z,1324
2017-08-04T05:18:08.759Z,1416
2017-08-04T05:19:10.144Z,1296
2017-08-04T05:20:11.814Z,1576
2017-08-04T05:21:14.026Z,1864
2017-08-04T05:22:16.100Z,1772
2017-08-04T05:23:18.491Z,1808
2017-08-04T05:24:19.891Z,1804
2017-08-04T05:25:21.284Z,1792
2017-08-04T05:26:22.668Z,1656
2017-08-04T05:27:24.070Z,1704
2017-08-04T05:28:25.458Z,1860
2017-08-04T05:29:26.847Z,1724
2017-08-04T05:30:28.419Z,2268
2017-08-04T05:31:29.829Z,2764
2017-08-04T05:32:31.256Z,3208
2017-08-04T05:33:32.712Z,2864
2017-08-04T05:34:34.153Z,3728
2017-08-04T05:35:35.780Z,3588
2017-08-04T05:37:18.164Z,3452
2017-08-04T05:38:19.545Z,3128
2017-08-04T05:39:20.927Z,2448
2017-08-04T05:40:22.312Z,2424
2017-08-04T05:41:23.698Z,2888
2017-08-04T05:42:25.096Z,2276
2017-08-04T05:43:26.488Z,1900
2017-08-04T05:44:27.876Z,2440
2017-08-04T05:45:29.266Z,3208
2017-08-04T05:46:30.651Z,4564
2017-08-04T05:47:32.732Z,6000
2017-08-04T05:48:34.595Z,5992
2017-08-04T05:49:36.394Z,4400
2017-08-04T05:50:38.693Z,3204
2017-08-04T05:51:40.194Z,2612
2017-08-04T05:52:42.440Z,2604
2017-08-04T05:53:44.776Z,2704
2017-08-04T05:54:46.226Z,2956
2017-08-04T05:55:47.615Z,3060
2017-08-04T05:56:49.001Z,3376
2017-08-04T05:57:50.416Z,3688
2017-08-04T05:58:52.692Z,3444
2017-08-04T05:59:54.462Z,3188
2017-08-04T06:00:55.856Z,3176
2017-08-04T06:01:57.292Z,3136
2017-08-04T06:02:58.840Z,3456
2017-08-04T06:04:00.530Z,3788
2017-08-04T06:05:01.960Z,3884
2017-08-04T06:06:03.328Z,3728
2017-08-04T06:07:04.780Z,3984
2017-08-04T06:08:06.329Z,4704
2017-08-04T06:09:07.714Z,5816
2017-08-04T06:10:09.180Z,6696
2017-08-04T06:11:10.592Z,7368
2017-08-04T06:12:12.016Z,7748
2017-08-04T06:13:13.411Z,7804
2017-08-04T06:14:14.803Z,7612
2017-08-04T06:15:57.187Z,6708
2017-08-04T06:16:58.963Z,6324
2017-08-04T06:18:00.311Z,6516
2017-08-04T06:19:01.695Z,6808
2017-08-04T06:20:03.468Z,6936
2017-08-04T06:21:04.801Z,7976
2017-08-04T06:22:06.208Z,9204
2017-08-04T06:23:07.592Z,9648
2017-08-04T06:24:08.998Z,9280
2017-08-04T06:25:10.385Z,10784
2017-08-04T06:26:11.772Z,10256
2017-08-04T06:27:13.160Z,10596
2017-08-04T06:28:14.781Z,10220
2017-08-04T06:29:16.270Z,11868
2017-08-04T06:30:18.451Z,11468
2017-08-04T06:31:20.127Z,8868
2017-08-04T06:32:21.515Z,6540
2017-08-04T06:33:22.934Z,5880
2017-08-04T06:34:24.565Z,6656
2017-08-04T06:35:25.980Z,8540
2017-08-04T06:36:27.446Z,9824
2017-08-04T06:37:29.133Z,9144
2017-08-04T06:38:30.841Z,9060
2017-08-04T06:39:32.305Z,8428
2017-08-04T06:41:14.684Z,8408
2017-08-04T06:42:16.068Z,7856
2017-08-04T06:43:17.453Z,6852
2017-08-04T06:44:18.843Z,6384
2017-08-04T06:45:20.236Z,7616
2017-08-04T06:46:21.620Z,6800
2017-08-04T06:47:23.008Z,5412
2017-08-04T06:48:24.395Z,6024
2017-08-04T06:49:25.797Z,7148
2017-08-04T06:50:27.169Z,9048
2017-08-04T06:51:28.587Z,7992
2017-08-04T06:52:29.957Z,7756
2017-08-04T06:53:31.343Z,9788
2017-08-04T06:54:32.741Z,11352
2017-08-04T06:55:34.123Z,11352
2017-08-04T06:56:35.511Z,12480
2017-08-04T06:57:36.898Z,11976
2017-08-04T06:58:38.286Z,11284
2017-08-04T06:59:39.679Z,11996
2017-08-04T07:00:41.071Z,17920
2017-08-04T07:01:42.466Z,13512
2017-08-04T07:02:43.852Z,16736
2017-08-04T07:03:45.241Z,32064
2017-08-04T07:04:46.629Z,12692
2017-08-04T07:05:48.020Z,13772
2017-08-04T07:06:49.407Z,13168
2017-08-04T07:07:51.146Z,94432
2017-08-04T07:08:52.537Z,20128
2017-08-04T07:09:53.939Z,24032
2017-08-04T07:10:55.331Z,34048
2017-08-04T07:11:56.714Z,64352
2017-08-04T07:12:58.105Z,17472
2017-08-04T07:13:59.510Z,19264
2017-08-04T07:15:00.900Z,41408
2017-08-04T07:16:02.291Z,53568
2017-08-04T07:17:03.719Z,50720
2017-08-04T07:18:05.101Z,19072
2017-08-04T07:19:06.497Z,15808
2017-08-04T07:20:08.339Z,15288
2017-08-04T07:21:09.707Z,13836
2017-08-04T07:22:11.123Z,39104
2017-08-04T07:23:12.516Z,34784
2017-08-04T07:24:13.985Z,16672
2017-08-04T07:25:15.420Z,16320
2017-08-04T07:26:16.832Z,18272
2017-08-04T07:27:18.223Z,25856
2017-08-04T07:28:19.629Z,16672
2017-08-04T07:29:21.016Z,15808
2017-08-04T07:30:22.416Z,13332
2017-08-04T07:31:23.916Z,15616
2017-08-04T07:32:25.298Z,10776
2017-08-04T07:33:26.758Z,13176
2017-08-04T07:34:28.143Z,18048
2017-08-04T07:35:29.540Z,20576
2017-08-04T07:36:30.930Z,18624
2017-08-04T07:37:32.324Z,17248
2017-08-04T07:38:33.780Z,16864
2017-08-04T07:39:35.167Z,17920
2017-08-04T07:40:36.555Z,17728
2017-08-04T07:41:37.950Z,18272
2017-08-04T07:42:39.368Z,18944
2017-08-04T07:43:40.767Z,19680
2017-08-04T07:44:42.184Z,20192
2017-08-04T07:45:43.638Z,23904
2017-08-04T07:46:45.038Z,16416
2017-08-04T07:47:46.429Z,18208
2017-08-04T07:48:47.840Z,20096
2017-08-04T07:49:49.252Z,20416
2017-08-04T07:50:50.644Z,18976
2017-08-04T07:51:52.038Z,20416
2017-08-04T07:52:53.430Z,20576
2017-08-04T07:53:54.818Z,15664
2017-08-04T07:54:56.216Z,16032
2017-08-04T07:55:57.697Z,17536
2017-08-04T07:57:40.137Z,21216
2017-08-04T07:58:41.529Z,21024
2017-08-04T07:59:42.917Z,21984
2017-08-04T08:00:44.338Z,20096
2017-08-04T08:01:45.723Z,20416
2017-08-04T08:02:47.122Z,18432
2017-08-04T08:03:48.514Z,19104
2017-08-04T08:04:49.905Z,16768
2017-08-04T08:05:51.295Z,16928
2017-08-04T08:06:52.691Z,17792
2017-08-04T08:07:54.112Z,19584
2017-08-04T08:08:55.508Z,22368
2017-08-04T08:09:56.894Z,25440
2017-08-04T08:10:58.297Z,31104
2017-08-04T08:11:59.686Z,27584
2017-08-04T08:13:01.075Z,31392
2017-08-04T08:14:43.458Z,41088
2017-08-04T08:15:44.877Z,36640
2017-08-04T08:16:46.247Z,33536
2017-08-04T08:17:47.636Z,35264
2017-08-04T08:18:49.033Z,29696
2017-08-04T08:19:50.430Z,28064
2017-08-04T08:20:51.825Z,25504
2017-08-04T08:21:53.222Z,42080
2017-08-04T08:22:54.610Z,23840
2017-08-04T08:23:56.010Z,23008
2017-08-04T08:24:57.406Z,22944
2017-08-04T08:26:39.918Z,23424
2017-08-04T08:27:41.368Z,21280
2017-08-04T08:28:42.800Z,21920
2017-08-04T08:29:44.173Z,21344
2017-08-04T08:30:45.659Z,20768
2017-08-04T08:31:47.058Z,21344
2017-08-04T08:32:48.452Z,22720
2017-08-04T08:33:49.846Z,22080
2017-08-04T08:34:51.517Z,19904
2017-08-04T08:35:53.175Z,18496
2017-08-04T08:36:54.798Z,17600
2017-08-04T08:37:56.228Z,19488
2017-08-04T08:38:57.617Z,22784
2017-08-04T08:39:59.013Z,24256
2017-08-04T08:41:00.410Z,23264
2017-08-04T08:42:01.801Z,21088
2017-08-04T08:43:04.455Z,20096
2017-08-04T08:44:05.950Z,19840
2017-08-04T08:45:07.369Z,19648
2017-08-04T08:46:08.819Z,29248
2017-08-04T08:47:10.835Z,28224
2017-08-04T08:48:12.230Z,22240
2017-08-04T08:49:14.309Z,24064
2017-08-04T08:50:15.766Z,36032
2017-08-04T08:51:17.227Z,31712
2017-08-04T08:52:18.624Z,29120
2017-08-04T08:53:20.042Z,27616
2017-08-04T08:54:21.437Z,24544
2017-08-04T08:55:22.832Z,23712
2017-08-04T08:56:24.326Z,20224
2017-08-04T08:57:25.732Z,29888
2017-08-04T08:58:27.125Z,34944
2017-08-04T08:59:28.570Z,30304
2017-08-04T09:00:30.020Z,24928
2017-08-04T09:01:31.464Z,24672
2017-08-04T09:02:32.859Z,23200
2017-08-04T09:03:34.293Z,23520
2017-08-04T09:04:35.691Z,25984
2017-08-04T09:05:37.089Z,26208
2017-08-04T09:06:38.499Z,29632
2017-08-04T09:07:39.909Z,28256
2017-08-04T09:08:41.310Z,26240
2017-08-04T09:09:42.748Z,28800
2017-08-04T09:10:44.459Z,29280
2017-08-04T09:11:45.903Z,31520
2017-08-04T09:12:47.724Z,42464
2017-08-04T09:13:49.368Z,33952
2017-08-04T09:14:50.752Z,27968
2017-08-04T09:15:52.156Z,29472
2017-08-04T09:16:53.583Z,29568
2017-08-04T09:17:55.078Z,26080
2017-08-04T09:18:57.224Z,25376
2017-08-04T09:19:59.481Z,28064
2017-08-04T09:21:01.481Z,60736
2017-08-04T09:22:02.906Z,24608
2017-08-04T09:23:04.461Z,22912
2017-08-04T09:24:05.870Z,24864
2017-08-04T09:25:07.268Z,29056
2017-08-04T09:26:08.702Z,27744
2017-08-04T09:27:10.111Z,39744
2017-08-04T09:28:11.504Z,89248
2017-08-04T09:29:12.931Z,33280
2017-08-04T09:30:14.465Z,36384
2017-08-04T09:31:15.869Z,43392
2017-08-04T09:32:17.311Z,100192
2017-08-04T09:33:18.738Z,52768
2017-08-04T09:34:20.215Z,68640
2017-08-04T09:35:21.629Z,54464
2017-08-04T09:36:23.059Z,53248
2017-08-04T09:37:24.473Z,87648
2017-08-04T09:38:25.868Z,45888
2017-08-04T09:39:27.273Z,68928
2017-08-04T09:40:28.713Z,91744
2017-08-04T09:42:09.681Z,88640
2017-08-04T09:43:11.468Z,88864
2017-08-04T09:44:13.431Z,89792
2017-08-04T09:45:14.843Z,92128
2017-08-04T09:46:16.243Z,88928
2017-08-04T09:47:17.643Z,85696
2017-08-04T09:48:19.039Z,58560
2017-08-04T09:49:20.447Z,78272
2017-08-04T09:50:21.844Z,92320
2017-08-04T09:51:23.243Z,87360
2017-08-04T09:52:24.679Z,87968
2017-08-04T09:53:26.081Z,81152
2017-08-04T09:54:27.483Z,89728
2017-08-04T09:55:28.880Z,95456
2017-08-04T09:56:30.285Z,73984
2017-08-04T09:57:31.682Z,106016
2017-08-04T09:58:33.091Z,44896
2017-08-04T09:59:34.492Z,48320
2017-08-04T10:00:35.892Z,40672
2017-08-04T10:01:37.295Z,39200
2017-08-04T10:02:38.697Z,38944
2017-08-04T10:03:40.100Z,38720
2017-08-04T10:04:41.493Z,43264
2017-08-04T10:05:42.903Z,45664
2017-08-04T10:06:45.014Z,43424
2017-08-04T10:07:46.399Z,51040
2017-08-04T10:08:47.799Z,42048
2017-08-04T10:09:49.209Z,42784
2017-08-04T10:10:50.613Z,41280
2017-08-04T10:11:52.011Z,41792
2017-08-04T10:12:53.407Z,49792
2017-08-04T10:13:54.829Z,48704
2017-08-04T10:14:56.232Z,49536
2017-08-04T10:15:57.632Z,41824
2017-08-04T10:16:59.034Z,38752
2017-08-04T10:18:00.439Z,35904
2017-08-04T10:19:02.232Z,21696
2017-08-04T10:20:03.561Z,22784
2017-08-04T10:21:04.999Z,23904
2017-08-04T10:22:06.440Z,23456
2017-08-04T10:23:07.837Z,34336
2017-08-04T10:24:09.324Z,31424
2017-08-04T10:25:10.728Z,19456
2017-08-04T10:26:12.134Z,18240
2017-08-04T10:27:13.525Z,18656
2017-08-04T10:28:14.946Z,17504
2017-08-04T10:29:16.343Z,19040
2017-08-04T10:30:18.191Z,21056
2017-08-04T10:32:00.572Z,17600
2017-08-04T10:33:01.964Z,19808
2017-08-04T10:34:03.363Z,22208
2017-08-04T10:35:04.746Z,20704
2017-08-04T10:36:06.512Z,22688
2017-08-04T10:37:07.907Z,25824
2017-08-04T10:38:09.320Z,26624
2017-08-04T10:39:10.719Z,25664
2017-08-04T10:40:12.110Z,23008
2017-08-04T10:41:13.507Z,22720
2017-08-04T10:42:14.895Z,22880
2017-08-04T10:43:16.291Z,21152
2017-08-04T10:44:17.683Z,20480
2017-08-04T10:45:19.280Z,20736
2017-08-04T10:46:20.668Z,17216
2017-08-04T10:47:22.989Z,16064
2017-08-04T10:48:25.133Z,17472
2017-08-04T10:49:27.410Z,18528
2017-08-04T10:50:29.068Z,20928
2017-08-04T10:51:30.782Z,21024
2017-08-04T10:52:32.199Z,21056
2017-08-04T10:53:34.357Z,24512
2017-08-04T10:54:36.317Z,27584
2017-08-04T10:55:37.704Z,23424
2017-08-04T10:56:39.093Z,26336
2017-08-04T10:57:40.490Z,28320
2017-08-04T10:58:41.887Z,29952
2017-08-04T10:59:43.284Z,30528
2017-08-04T11:00:44.684Z,32928
2017-08-04T11:01:46.078Z,39360
2017-08-04T11:02:47.888Z,40832
2017-08-04T11:03:49.684Z,39264
2017-08-04T11:04:51.516Z,25184
2017-08-04T11:05:52.927Z,20672
2017-08-04T11:06:54.484Z,19616
2017-08-04T11:07:55.877Z,22048
2017-08-04T11:08:57.323Z,22592
2017-08-04T11:10:38.709Z,26144
2017-08-04T11:11:40.098Z,31744
2017-08-04T11:13:03.123Z,26304
2017-08-04T11:14:04.524Z,19168
2017-08-04T11:15:05.927Z,17600
2017-08-04T11:16:07.335Z,18656
2017-08-04T11:17:08.737Z,21216
2017-08-04T11:18:10.144Z,20416
2017-08-04T11:19:11.533Z,16160
2017-08-04T11:20:12.930Z,16192
2017-08-04T11:21:14.320Z,15968
2017-08-04T11:22:15.728Z,20224
2017-08-04T11:23:17.128Z,27616
2017-08-04T11:24:18.520Z,27936
2017-08-04T11:25:19.919Z,33728
2017-08-04T11:26:21.313Z,64256
2017-08-04T11:27:22.716Z,44640
2017-08-04T11:28:24.099Z,37984
2017-08-04T11:29:25.494Z,36448
2017-08-04T11:30:26.889Z,33216
2017-08-04T11:31:28.282Z,28992
2017-08-04T11:32:29.691Z,29792
2017-08-04T11:33:31.084Z,33568
2017-08-04T11:34:32.522Z,32832
2017-08-04T11:35:33.916Z,30080
2017-08-04T11:36:35.311Z,39840
2017-08-04T11:37:36.707Z,65696
2017-08-04T11:38:38.101Z,59488
2017-08-04T11:39:39.548Z,69440
2017-08-04T11:40:41.011Z,51136
2017-08-04T11:41:42.410Z,80832
2017-08-04T11:42:43.809Z,94912
2017-08-04T11:43:45.395Z,84864
2017-08-04T11:44:46.852Z,40512
2017-08-04T11:45:48.255Z,46656
2017-08-04T11:46:49.860Z,43200
2017-08-04T11:48:32.252Z,31520
2017-08-04T11:49:33.649Z,33440
2017-08-04T11:50:35.311Z,33088
2017-08-04T11:51:36.719Z,36352
2017-08-04T11:52:38.143Z,38592
2017-08-04T11:53:39.517Z,43744
2017-08-04T11:54:40.924Z,57632
2017-08-04T11:55:42.317Z,53664
2017-08-04T11:56:43.717Z,32800
2017-08-04T11:57:45.122Z,40864
2017-08-04T11:58:46.517Z,26688
2017-08-04T11:59:47.932Z,28576
2017-08-04T12:00:49.326Z,23072
2017-08-04T12:01:50.720Z,19488
2017-08-04T12:03:32.119Z,20960
2017-08-04T12:04:33.521Z,26336
2017-08-04T12:05:56.542Z,23808
2017-08-04T12:06:57.936Z,19392
2017-08-04T12:07:59.331Z,16128
2017-08-04T12:09:00.735Z,14520
2017-08-04T12:10:02.132Z,14944
2017-08-04T12:11:03.527Z,16480
2017-08-04T12:12:04.967Z,14268
2017-08-04T12:13:06.367Z,12100
2017-08-04T12:14:07.763Z,11848
2017-08-04T12:15:09.156Z,12152
2017-08-04T12:16:10.550Z,14908
2017-08-04T12:17:11.946Z,20128
2017-08-04T12:18:13.341Z,30432
2017-08-04T12:19:14.769Z,37216
2017-08-04T12:20:16.164Z,48736
2017-08-04T12:21:17.557Z,81120
2017-08-04T12:22:18.949Z,40576
2017-08-04T12:23:20.358Z,44896
2017-08-04T12:24:21.750Z,118592
2017-08-04T12:25:23.153Z,66560
2017-08-04T12:26:24.568Z,115776
2017-08-04T12:27:25.972Z,36096
2017-08-04T12:28:27.370Z,30944
2017-08-04T12:29:28.767Z,27552
2017-08-04T12:30:30.160Z,26944
2017-08-04T12:31:31.566Z,20416
2017-08-04T12:32:32.951Z,24576
2017-08-04T12:33:34.344Z,26112
2017-08-04T12:34:35.748Z,22400
2017-08-04T12:35:37.143Z,24224
2017-08-04T12:36:38.540Z,28736
2017-08-04T12:37:39.950Z,37440
2017-08-04T12:38:41.342Z,117728
2017-08-04T12:39:42.741Z,46272
2017-08-04T12:40:44.141Z,100160
2017-08-04T12:41:45.550Z,80768
2017-08-04T12:42:46.950Z,95104
2017-08-04T12:43:48.343Z,77408
2017-08-04T12:44:49.741Z,118976
2017-08-04T12:45:51.144Z,115904
2017-08-04T12:46:52.546Z,57952
2017-08-04T12:47:53.943Z,66912
2017-08-04T12:48:55.356Z,107200
2017-08-04T12:49:56.757Z,72704
2017-08-04T12:50:58.150Z,47840
2017-08-04T12:52:40.548Z,20032
2017-08-04T12:53:41.951Z,31200
2017-08-04T12:54:43.350Z,40736
2017-08-04T12:55:44.749Z,57856
2017-08-04T12:56:46.152Z,35488
2017-08-04T12:57:47.550Z,25216
2017-08-04T12:58:48.959Z,24896
2017-08-04T12:59:50.367Z,34656
2017-08-04T13:00:51.760Z,59264
2017-08-04T13:01:53.161Z,22080
2017-08-04T13:02:54.569Z,25792
2017-08-04T13:03:55.958Z,21696
2017-08-04T13:04:57.378Z,18144
2017-08-04T13:05:58.756Z,13996
2017-08-04T13:07:00.160Z,9588
2017-08-04T13:08:42.543Z,8108
2017-08-04T13:09:43.940Z,9072
2017-08-04T13:10:45.356Z,8504
2017-08-04T13:11:46.754Z,6160
2017-08-04T13:12:48.153Z,3956
2017-08-04T13:13:49.569Z,4348
2017-08-04T13:14:50.964Z,7388
2017-08-04T13:15:52.361Z,19296
2017-08-04T13:16:53.754Z,62976
2017-08-04T13:17:55.148Z,121216
2017-08-04T13:18:56.548Z,126944
2017-08-04T13:19:57.941Z,73952
2017-08-04T13:20:59.339Z,118976
2017-08-04T13:22:00.735Z,59904
2017-08-04T13:23:02.129Z,56224
2017-08-04T13:24:03.525Z,43648
2017-08-04T13:25:04.917Z,31936
2017-08-04T13:26:06.318Z,24960
2017-08-04T13:27:07.717Z,27264
2017-08-04T13:28:09.118Z,27744
2017-08-04T13:29:10.517Z,29664
2017-08-04T13:30:11.917Z,42464
2017-08-04T13:31:13.312Z,25952
2017-08-04T13:32:55.708Z,25920
2017-08-04T13:33:57.104Z,24576
2017-08-04T13:34:58.500Z,26240
2017-08-04T13:35:59.898Z,16864
2017-08-04T13:37:01.295Z,15028
2017-08-04T13:38:02.695Z,16320
2017-08-04T13:39:04.092Z,17696
2017-08-04T13:40:05.496Z,19232
2017-08-04T13:41:06.891Z,18752
2017-08-04T13:42:08.284Z,15808
2017-08-04T13:43:09.691Z,11516
2017-08-04T13:44:11.075Z,9520
2017-08-04T13:45:12.471Z,9520
2017-08-04T13:46:13.865Z,11092
2017-08-04T13:47:15.265Z,11580
2017-08-04T13:48:16.656Z,12784
2017-08-04T13:49:18.052Z,13672
2017-08-04T13:50:19.444Z,26272
2017-08-04T13:51:20.839Z,28256
2017-08-04T13:52:22.238Z,34368
2017-08-04T13:53:23.635Z,59584
2017-08-04T13:54:25.034Z,41312
2017-08-04T13:55:26.427Z,35968
2017-08-04T13:56:27.819Z,53696
2017-08-04T13:57:29.215Z,60064
2017-08-04T13:58:30.610Z,30432
2017-08-04T13:59:32.006Z,27232
2017-08-04T14:00:33.402Z,26944
2017-08-04T14:01:34.812Z,37440
2017-08-04T14:02:36.216Z,25376
2017-08-04T14:03:37.612Z,21728
2017-08-04T14:04:39.009Z,18624
2017-08-04T14:05:40.406Z,17728
2017-08-04T14:06:41.805Z,17024
2017-08-04T14:07:43.215Z,18304